createdAt,value
2019-01-25T00:01:52.265Z,58.50
2019-01-25T00:04:23.632Z,66.80
2019-01-25T00:06:56.130Z,57.60
2019-01-25T00:09:27.580Z,58.97
2019-01-25T00:11:58.831Z,54.83
2019-01-25T00:14:30.164Z,55.63
2019-01-25T00:17:01.575Z,56.77
2019-01-25T00:19:33.065Z,52.70
2019-01-25T00:22:04.531Z,53.73
2019-01-25T00:24:35.839Z,54.07
2019-01-25T00:27:08.298Z,55.27
2019-01-25T00:29:39.626Z,56.23
2019-01-25T00:32:11.032Z,54.90
2019-01-25T00:34:42.542Z,57.43
2019-01-25T00:37:13.909Z,57.77
2019-01-25T00:39:45.314Z,58.20
2019-01-25T00:42:16.675Z,55.10
2019-01-25T00:44:48.040Z,55.93
2019-01-25T00:47:19.297Z,61.10
2019-01-25T00:49:50.673Z,55.67
2019-01-25T00:52:21.992Z,55.80
2019-01-25T00:54:53.317Z,55.47
2019-01-25T00:57:24.655Z,58.97
2019-01-25T00:59:56.879Z,60.17
2019-01-25T01:02:28.201Z,54.37
2019-01-25T01:04:59.708Z,58.47
2019-01-25T01:07:31.110Z,55.87
2019-01-25T01:10:02.573Z,62.17
2019-01-25T01:12:34.051Z,62.23
2019-01-25T01:15:10.122Z,56.40
2019-01-25T01:17:41.660Z,63.07
2019-01-25T01:20:19.508Z,56.63
2019-01-25T01:22:51.106Z,56.43
2019-01-25T01:25:23.313Z,58.83
2019-01-25T01:27:54.778Z,55.33
2019-01-25T01:30:26.248Z,59.17
2019-01-25T01:32:57.667Z,58.13
2019-01-25T01:35:29.159Z,63.43
2019-01-25T01:38:00.789Z,64.37
2019-01-25T01:40:32.195Z,61.67
2019-01-25T01:43:03.657Z,59.80
2019-01-25T01:45:35.097Z,56.10
2019-01-25T01:48:06.663Z,52.43
2019-01-25T01:50:38.212Z,53.43
2019-01-25T01:53:09.726Z,51.43
2019-01-25T01:55:41.013Z,55.20
2019-01-25T01:58:12.453Z,53.07
2019-01-25T02:00:43.894Z,55.60
2019-01-25T02:03:15.395Z,56.40
2019-01-25T02:05:47.010Z,53.93
2019-01-25T02:08:18.307Z,56.83
2019-01-25T02:10:50.726Z,53.13
2019-01-25T02:13:22.203Z,55.03
2019-01-25T02:15:53.675Z,56.77
2019-01-25T02:18:25.167Z,55.50
2019-01-25T02:20:56.696Z,53.23
2019-01-25T02:23:28.183Z,59.87
2019-01-25T02:26:00.361Z,58.00
2019-01-25T02:28:31.915Z,59.83
2019-01-25T02:31:03.337Z,60.53
2019-01-25T02:33:34.895Z,61.23
2019-01-25T02:36:06.408Z,58.63
2019-01-25T02:38:37.819Z,60.30
2019-01-25T02:41:09.230Z,64.27
2019-01-25T02:43:40.582Z,64.00
2019-01-25T02:46:12.048Z,62.57
2019-01-25T02:48:43.461Z,55.77
2019-01-25T02:51:14.937Z,56.93
2019-01-25T02:53:46.235Z,60.47
2019-01-25T02:56:17.712Z,60.77
2019-01-25T02:58:49.104Z,68.73
2019-01-25T03:01:20.525Z,64.90
2019-01-25T03:03:51.954Z,62.87
2019-01-25T03:06:23.428Z,68.20
2019-01-25T03:08:54.787Z,65.07
2019-01-25T03:11:26.491Z,63.67
2019-01-25T03:13:58.090Z,64.63
2019-01-25T03:16:29.553Z,62.73
2019-01-25T03:19:01.072Z,61.80
2019-01-25T03:21:32.499Z,65.10
2019-01-25T03:24:04.085Z,68.77
2019-01-25T03:26:35.586Z,64.97
2019-01-25T03:29:08.757Z,65.93
2019-01-25T03:31:40.410Z,59.17
2019-01-25T03:34:11.779Z,62.97
2019-01-25T03:36:43.224Z,64.37
2019-01-25T03:39:14.575Z,61.87
2019-01-25T03:41:46.048Z,63.67
2019-01-25T03:44:17.688Z,63.50
2019-01-25T03:46:49.358Z,67.17
2019-01-25T03:49:20.916Z,68.13
2019-01-25T03:51:52.468Z,63.03
2019-01-25T03:54:23.917Z,68.00
2019-01-25T03:56:55.492Z,65.53
2019-01-25T03:59:26.993Z,67.23
2019-01-25T04:01:58.473Z,66.43
2019-01-25T04:04:29.957Z,70.80
2019-01-25T04:07:01.450Z,67.90
2019-01-25T04:09:32.762Z,65.47
2019-01-25T04:12:04.312Z,74.00
2019-01-25T04:14:35.716Z,66.20
2019-01-25T04:17:07.244Z,75.17
2019-01-25T04:19:38.652Z,76.23
2019-01-25T04:22:10.223Z,77.63
2019-01-25T04:24:41.827Z,69.83
2019-01-25T04:27:13.153Z,82.03
2019-01-25T04:29:44.465Z,78.87
2019-01-25T04:32:15.954Z,73.10
2019-01-25T04:34:47.306Z,77.23
2019-01-25T04:37:18.733Z,76.17
2019-01-25T04:39:50.119Z,75.63
2019-01-25T04:42:21.523Z,73.60
2019-01-25T04:44:53.037Z,75.10
2019-01-25T04:47:29.461Z,83.87
2019-01-25T04:50:00.906Z,77.10
2019-01-25T04:52:32.397Z,79.93
2019-01-25T04:55:17.256Z,78.67
2019-01-25T04:57:48.806Z,73.97
2019-01-25T05:00:24.472Z,77.23
2019-01-25T05:03:00.979Z,78.63
2019-01-25T05:05:32.589Z,77.97
2019-01-25T05:08:08.396Z,74.23
2019-01-25T05:11:28.360Z,76.57
2019-01-25T05:14:06.515Z,86.40
2019-01-25T05:16:39.529Z,75.70
2019-01-25T05:19:12.022Z,82.93
2019-01-25T05:21:43.343Z,77.73
2019-01-25T05:24:15.232Z,73.57
2019-01-25T05:26:46.941Z,77.93
2019-01-25T05:29:23.257Z,71.93
2019-01-25T05:32:15.208Z,78.80
2019-01-25T05:34:47.051Z,80.57
2019-01-25T05:37:19.524Z,78.93
2019-01-25T05:39:51.033Z,74.80
2019-01-25T05:42:22.430Z,78.77
2019-01-25T05:44:53.841Z,72.57
2019-01-25T05:47:25.144Z,76.30
2019-01-25T05:49:56.703Z,77.10
2019-01-25T05:52:28.025Z,77.47
2019-01-25T05:54:59.491Z,75.57
2019-01-25T05:57:30.784Z,82.43
2019-01-25T06:00:03.762Z,75.93
2019-01-25T06:02:35.110Z,79.27
2019-01-25T06:05:09.500Z,79.73
2019-01-25T06:07:40.894Z,74.07
2019-01-25T06:10:13.814Z,73.10
2019-01-25T06:12:45.148Z,76.67
2019-01-25T06:15:16.597Z,78.10
2019-01-25T06:17:47.849Z,73.97
2019-01-25T06:20:19.242Z,75.93
2019-01-25T06:22:52.103Z,79.73
2019-01-25T06:25:23.491Z,75.57
2019-01-25T06:28:05.537Z,73.73
2019-01-25T06:30:38.182Z,78.60
2019-01-25T06:33:09.568Z,83.50
2019-01-25T06:35:40.880Z,76.93
2019-01-25T06:38:12.338Z,82.97
2019-01-25T06:40:43.755Z,79.57
2019-01-25T06:43:15.320Z,77.17
2019-01-25T06:45:46.819Z,77.57
2019-01-25T06:48:18.368Z,83.13
2019-01-25T06:50:49.752Z,81.63
2019-01-25T06:53:21.106Z,87.23
2019-01-25T06:55:52.563Z,78.10
2019-01-25T06:58:25.479Z,78.63
2019-01-25T07:01:01.487Z,80.30
2019-01-25T07:03:32.809Z,86.10
2019-01-25T07:06:10.508Z,74.53
2019-01-25T07:08:41.826Z,75.30
2019-01-25T07:11:13.240Z,75.13
2019-01-25T07:13:44.520Z,79.30
2019-01-25T07:16:16.127Z,74.80
2019-01-25T07:18:47.528Z,74.60
2019-01-25T07:21:18.976Z,71.63
2019-01-25T07:23:50.304Z,78.20
2019-01-25T07:26:21.766Z,80.57
2019-01-25T07:28:53.108Z,78.80
2019-01-25T07:31:24.565Z,79.50
2019-01-25T07:33:57.284Z,78.47
2019-01-25T07:36:28.831Z,71.90
2019-01-25T07:39:00.098Z,75.10
2019-01-25T07:41:33.698Z,76.23
2019-01-25T07:44:06.741Z,87.20
2019-01-25T07:46:38.514Z,75.40
2019-01-25T07:49:09.787Z,80.70
2019-01-25T07:51:41.793Z,84.00
2019-01-25T07:54:13.211Z,78.00
2019-01-25T07:56:44.766Z,82.67
2019-01-25T07:59:16.236Z,90.40
2019-01-25T08:01:47.557Z,87.73
2019-01-25T08:04:18.800Z,76.47
2019-01-25T08:06:50.244Z,74.20
2019-01-25T08:09:23.147Z,80.37
2019-01-25T08:11:54.695Z,79.73
2019-01-25T08:14:26.070Z,88.03
2019-01-25T08:16:57.598Z,72.37
2019-01-25T08:19:29.037Z,77.57
2019-01-25T08:22:00.341Z,87.60
2019-01-25T08:24:31.603Z,77.53
2019-01-25T08:27:03.329Z,76.67
2019-01-25T08:29:35.813Z,74.73
2019-01-25T08:32:07.233Z,74.17
2019-01-25T08:34:38.482Z,75.13
2019-01-25T08:37:09.865Z,85.40
2019-01-25T08:39:41.194Z,79.13
2019-01-25T08:42:15.621Z,81.37
2019-01-25T08:44:45.665Z,74.03
2019-01-25T08:47:16.966Z,85.77
2019-01-25T08:49:48.314Z,78.43
2019-01-25T08:52:19.668Z,76.83
2019-01-25T08:54:51.175Z,78.00
2019-01-25T08:57:22.645Z,76.00
2019-01-25T08:59:54.067Z,80.67
2019-01-25T09:02:25.371Z,75.87
2019-01-25T09:04:56.638Z,78.43
2019-01-25T09:07:28.002Z,77.20
2019-01-25T09:09:59.253Z,75.77
2019-01-25T09:12:30.627Z,72.13
2019-01-25T09:15:01.954Z,75.47
2019-01-25T09:17:33.390Z,77.37
2019-01-25T09:20:14.422Z,79.30
2019-01-25T09:22:42.145Z,74.63
2019-01-25T09:25:13.540Z,72.30
2019-01-25T09:27:45.249Z,71.73
2019-01-25T09:30:26.350Z,78.60
2019-01-25T09:32:57.771Z,74.33
2019-01-25T09:35:29.160Z,72.70
2019-01-25T09:38:00.600Z,74.57
2019-01-25T09:40:32.383Z,70.30
2019-01-25T09:43:06.615Z,70.37
2019-01-25T09:45:38.064Z,75.37
2019-01-25T09:48:10.500Z,69.77
2019-01-25T09:50:41.975Z,75.90
2019-01-25T09:53:13.604Z,65.80
2019-01-25T09:55:46.022Z,70.50
2019-01-25T09:58:20.166Z,69.10
2019-01-25T10:00:56.320Z,67.50
2019-01-25T10:03:29.756Z,67.20
2019-01-25T10:06:01.242Z,66.63
2019-01-25T10:08:32.748Z,66.67
2019-01-25T10:11:04.315Z,64.27
2019-01-25T10:13:35.937Z,63.73
2019-01-25T10:16:07.456Z,69.63
2019-01-25T10:18:38.785Z,69.23
2019-01-25T10:21:10.162Z,66.63
2019-01-25T10:23:41.523Z,62.53
2019-01-25T10:26:12.868Z,58.30
2019-01-25T10:28:44.332Z,59.63
2019-01-25T10:31:15.561Z,60.27
2019-01-25T10:33:46.996Z,62.27
2019-01-25T10:36:18.312Z,62.73
2019-01-25T10:38:49.667Z,64.10
2019-01-25T10:41:20.972Z,57.57
2019-01-25T10:43:55.155Z,56.47
2019-01-25T10:46:27.388Z,53.80
2019-01-25T10:49:00.172Z,50.73
2019-01-25T10:51:31.525Z,53.70
2019-01-25T10:54:03.014Z,50.63
2019-01-25T10:56:34.344Z,55.90
2019-01-25T10:59:05.814Z,54.43
2019-01-25T11:01:37.177Z,51.10
2019-01-25T11:04:11.669Z,51.20
2019-01-25T11:06:43.940Z,55.80
2019-01-25T11:09:16.890Z,54.00
2019-01-25T11:11:49.577Z,50.13
2019-01-25T11:14:20.967Z,46.63
2019-01-25T11:17:06.708Z,53.60
2019-01-25T11:19:40.992Z,51.53
2019-01-25T11:22:12.409Z,46.60
2019-01-25T11:24:47.283Z,50.00
2019-01-25T11:27:18.614Z,47.30
2019-01-25T11:29:50.003Z,46.30
2019-01-25T11:32:21.410Z,48.70
2019-01-25T11:34:52.912Z,49.00
2019-01-25T11:37:25.823Z,50.00
2019-01-25T11:40:01.207Z,51.27
2019-01-25T11:42:47.358Z,47.67
2019-01-25T11:45:19.136Z,43.30
2019-01-25T11:47:50.796Z,43.03
2019-01-25T11:50:22.952Z,40.80
2019-01-25T11:53:01.555Z,40.13
2019-01-25T12:02:20.875Z,33.87
2019-01-25T12:05:00.498Z,38.97
2019-01-25T12:07:33.949Z,34.10
2019-01-25T12:10:11.559Z,36.53
2019-01-25T12:12:44.929Z,40.20
2019-01-25T12:15:18.685Z,35.83
2019-01-25T12:17:51.981Z,33.43
2019-01-25T12:20:48.785Z,31.73
2019-01-25T12:23:25.183Z,30.53
2019-01-25T12:25:57.832Z,29.90
2019-01-25T12:28:29.534Z,34.03
2019-01-25T12:31:01.093Z,31.37
2019-01-25T12:33:34.429Z,34.83
2019-01-25T12:36:07.738Z,35.87
2019-01-25T12:38:41.759Z,29.97
2019-01-25T12:41:15.080Z,26.37
2019-01-25T12:43:48.364Z,29.37
2019-01-25T12:46:21.547Z,28.97
2019-01-25T12:48:54.753Z,30.60
2019-01-25T12:51:26.772Z,27.00
2019-01-25T12:54:01.235Z,27.23
2019-01-25T12:56:38.360Z,28.63
2019-01-25T12:59:11.523Z,25.30
2019-01-25T13:01:45.654Z,24.53
2019-01-25T13:04:18.688Z,23.93
2019-01-25T13:06:58.038Z,21.20
2019-01-25T13:09:29.887Z,25.40
2019-01-25T13:12:09.052Z,22.50
2019-01-25T13:14:46.943Z,27.97
2019-01-25T13:17:20.167Z,28.43
2019-01-25T13:19:53.575Z,25.77
2019-01-25T13:22:25.113Z,24.50
2019-01-25T13:24:56.619Z,22.77
2019-01-25T13:27:30.025Z,25.83
2019-01-25T13:30:01.522Z,25.10
2019-01-25T13:32:33.279Z,27.23
2019-01-25T13:35:09.909Z,27.80
2019-01-25T13:37:46.380Z,27.10
2019-01-25T13:40:24.645Z,29.10
2019-01-25T13:42:57.936Z,27.90
2019-01-25T13:45:29.829Z,26.77
2019-01-25T13:48:02.075Z,27.57
2019-01-25T13:50:35.701Z,26.17
2019-01-25T13:53:07.358Z,27.63
2019-01-25T13:55:45.254Z,33.00
2019-01-25T13:58:17.581Z,29.53
2019-01-25T14:00:52.675Z,38.00
2019-01-25T14:03:24.326Z,30.40
2019-01-25T14:05:56.878Z,30.77
2019-01-25T14:08:33.191Z,32.73
2019-01-25T14:11:05.741Z,31.53
2019-01-25T14:13:37.898Z,33.17
2019-01-25T14:16:11.040Z,34.13
2019-01-25T14:18:44.924Z,33.63
2019-01-25T14:21:15.716Z,31.10
2019-01-25T14:23:47.352Z,33.83
2019-01-25T14:26:18.917Z,30.53
2019-01-25T14:28:50.407Z,29.73
2019-01-25T14:31:21.781Z,32.23
2019-01-25T14:33:53.187Z,35.33
2019-01-25T14:36:24.553Z,31.67
2019-01-25T14:38:57.001Z,32.00
2019-01-25T14:41:31.193Z,35.63
2019-01-25T14:44:02.662Z,35.57
2019-01-25T14:46:34.208Z,51.23
2019-01-25T14:49:07.541Z,51.23
2019-01-25T14:51:49.534Z,48.20
2019-01-25T14:54:22.806Z,46.87
2019-01-25T14:56:55.850Z,50.57
2019-01-25T14:59:28.435Z,48.93
2019-01-25T15:02:00.061Z,51.53
2019-01-25T15:04:31.703Z,47.87
2019-01-25T15:07:03.238Z,54.67
2019-01-25T15:09:35.118Z,53.07
2019-01-25T15:12:08.575Z,50.17
2019-01-25T15:14:40.018Z,48.43
2019-01-25T15:17:13.087Z,51.03
2019-01-25T15:19:48.631Z,46.73
2019-01-25T15:22:21.100Z,53.43
2019-01-25T15:24:52.838Z,52.40
2019-01-25T15:27:27.304Z,52.67
2019-01-25T15:30:00.742Z,52.53
2019-01-25T15:32:40.298Z,49.73
2019-01-25T15:35:11.571Z,49.73
2019-01-25T15:37:46.474Z,50.53
2019-01-25T15:40:21.004Z,56.80
2019-01-25T15:42:54.332Z,55.83
2019-01-25T15:45:26.220Z,54.77
2019-01-25T15:48:00.624Z,55.97
2019-01-25T15:50:42.333Z,60.57
2019-01-25T15:53:15.440Z,57.63
2019-01-25T15:55:47.124Z,58.97
2019-01-25T15:58:20.464Z,55.70
2019-01-25T16:00:52.145Z,54.37
2019-01-25T16:03:26.473Z,55.90
2019-01-25T16:06:00.627Z,55.87
2019-01-25T16:08:34.381Z,57.80
2019-01-25T16:11:12.136Z,54.20
2019-01-25T16:13:47.115Z,57.67
2019-01-25T16:16:22.218Z,54.50
2019-01-25T16:19:14.285Z,49.43
2019-01-25T16:21:47.428Z,59.70
2019-01-25T16:24:20.610Z,54.93
2019-01-25T16:26:55.762Z,57.07
2019-01-25T16:29:33.275Z,58.10
2019-01-25T16:35:16.558Z,57.80
2019-01-25T16:37:55.122Z,57.87
2019-01-25T16:40:32.806Z,56.20
2019-01-25T16:43:04.772Z,58.43
2019-01-25T16:45:44.408Z,57.77
2019-01-25T16:48:18.788Z,52.80
2019-01-25T16:50:50.599Z,51.80
2019-01-25T16:53:27.597Z,60.60
2019-01-25T16:55:57.550Z,57.57
2019-01-25T16:58:30.379Z,55.43
2019-01-25T17:01:06.652Z,60.67
2019-01-25T17:03:40.808Z,58.27
2019-01-25T17:06:12.797Z,56.67
2019-01-25T17:08:44.314Z,56.10
2019-01-25T17:11:15.821Z,53.63
2019-01-25T17:13:48.295Z,56.97
2019-01-25T17:16:20.228Z,61.03
2019-01-25T17:18:52.863Z,55.17
2019-01-25T17:21:24.536Z,52.30
2019-01-25T17:23:56.107Z,59.17
2019-01-25T17:26:27.599Z,55.63
2019-01-25T17:28:59.287Z,53.83
2019-01-25T17:31:30.863Z,58.80
2019-01-25T17:34:02.336Z,55.37
2019-01-25T17:36:34.168Z,60.30
2019-01-25T17:39:11.260Z,56.43
2019-01-25T17:41:43.104Z,55.37
2019-01-25T17:44:14.545Z,50.57
2019-01-25T17:46:45.967Z,54.30
2019-01-25T17:49:17.351Z,55.33
2019-01-25T17:51:48.900Z,53.30
2019-01-25T17:54:20.374Z,49.97
2019-01-25T17:56:51.859Z,57.10
2019-01-25T17:59:23.298Z,53.50
2019-01-25T18:01:54.936Z,50.53
2019-01-25T18:04:26.594Z,51.93
2019-01-25T18:06:58.265Z,49.83
2019-01-25T18:09:29.737Z,54.03
2019-01-25T18:12:01.254Z,52.73
2019-01-25T18:14:33.702Z,55.87
2019-01-25T18:17:05.250Z,46.07
2019-01-25T18:19:36.620Z,51.00
2019-01-25T18:22:08.174Z,50.70
2019-01-25T18:24:40.554Z,48.00
2019-01-25T18:27:11.864Z,46.73
2019-01-25T18:29:44.231Z,42.63
2019-01-25T18:32:16.336Z,44.53
2019-01-25T18:34:47.956Z,43.87
2019-01-25T18:37:20.470Z,46.53
2019-01-25T18:39:52.054Z,46.10
2019-01-25T18:42:23.441Z,48.50
2019-01-25T18:44:56.907Z,43.10
2019-01-25T18:47:27.839Z,40.33
2019-01-25T18:49:59.450Z,45.00
2019-01-25T18:52:30.823Z,46.07
2019-01-25T18:55:02.599Z,41.63
2019-01-25T18:57:34.120Z,44.40
2019-01-25T19:00:09.758Z,47.70
2019-01-25T19:02:41.487Z,48.57
2019-01-25T19:05:12.991Z,44.87
2019-01-25T19:07:44.636Z,47.73
2019-01-25T19:10:26.119Z,43.07
2019-01-25T19:12:57.587Z,43.70
2019-01-25T19:15:33.082Z,45.37
2019-01-25T19:18:04.893Z,45.27
2019-01-25T19:20:36.739Z,41.97
2019-01-25T19:23:08.169Z,48.27
2019-01-25T19:25:39.534Z,45.07
2019-01-25T19:28:10.939Z,41.97
2019-01-25T19:30:46.267Z,42.73
2019-01-25T19:33:17.934Z,42.57
2019-01-25T19:35:49.420Z,40.93
2019-01-25T19:38:21.515Z,42.60
2019-01-25T19:40:57.048Z,48.73
2019-01-25T19:43:28.624Z,42.47
2019-01-25T19:46:00.109Z,44.77
2019-01-25T19:48:31.522Z,43.83
2019-01-25T19:51:03.143Z,37.23
2019-01-25T19:53:34.716Z,40.70
2019-01-25T19:56:06.863Z,41.70
2019-01-25T19:58:38.336Z,43.10
2019-01-25T20:01:14.106Z,42.73
2019-01-25T20:03:45.590Z,42.33
2019-01-25T20:06:17.264Z,44.40
2019-01-25T20:08:48.762Z,43.00
2019-01-25T20:11:21.324Z,39.57
2019-01-25T20:13:52.892Z,37.87
2019-01-25T20:16:25.934Z,41.87
2019-01-25T20:18:58.822Z,42.97
2019-01-25T20:21:43.559Z,37.90
2019-01-25T20:24:18.400Z,40.73
2019-01-25T20:26:49.844Z,39.63
2019-01-25T20:29:21.722Z,40.43
2019-01-25T20:31:53.334Z,40.93
2019-01-25T20:34:24.915Z,38.50
2019-01-25T20:36:56.678Z,41.43
2019-01-25T20:39:28.318Z,36.90
2019-01-25T20:41:59.916Z,40.20
2019-01-25T20:44:31.543Z,39.97
2019-01-25T20:47:02.972Z,42.30
2019-01-25T20:49:34.700Z,40.50
2019-01-25T20:55:36.193Z,38.23
2019-01-25T20:58:08.024Z,41.63
2019-01-25T21:00:41.146Z,36.67
2019-01-25T21:03:16.882Z,37.23
2019-01-25T21:05:50.371Z,33.93
2019-01-25T21:08:22.479Z,33.53
2019-01-25T21:10:55.672Z,34.97
2019-01-25T21:13:27.347Z,30.90
2019-01-25T21:15:58.731Z,33.87
2019-01-25T21:18:30.362Z,52.80
2019-01-25T21:21:01.906Z,40.00
2019-01-25T21:23:33.614Z,44.77
2019-01-25T21:26:05.086Z,41.37
2019-01-25T21:28:36.693Z,39.33
2019-01-25T21:31:08.201Z,39.80
2019-01-25T21:33:39.854Z,38.47
2019-01-25T21:36:11.407Z,36.30
2019-01-25T21:38:43.859Z,41.73
2019-01-25T21:41:15.633Z,40.20
2019-01-25T21:43:47.219Z,38.53
2019-01-25T21:46:19.626Z,35.13
2019-01-25T21:48:53.748Z,33.17
2019-01-25T21:51:25.271Z,32.80
2019-01-25T21:53:56.892Z,36.33
2019-01-25T21:56:28.465Z,32.47
2019-01-25T21:59:00.193Z,30.27
2019-01-25T22:01:31.610Z,33.17
2019-01-25T22:04:03.332Z,30.60
2019-01-25T22:06:34.970Z,30.77
2019-01-25T22:09:08.671Z,31.97
2019-01-25T22:11:40.393Z,26.33
2019-01-25T22:14:12.138Z,25.83
2019-01-25T22:16:44.094Z,22.77
2019-01-25T22:19:15.737Z,20.60
2019-01-25T22:21:50.765Z,21.67
2019-01-25T22:24:22.375Z,20.50
2019-01-25T22:26:54.052Z,17.30
2019-01-25T22:29:25.904Z,19.20
2019-01-25T22:31:59.057Z,17.73
2019-01-25T22:34:30.696Z,19.60
2019-01-25T22:37:02.141Z,19.67
2019-01-25T22:39:33.790Z,19.27
2019-01-25T22:42:05.353Z,19.47
2019-01-25T22:44:37.063Z,20.60
2019-01-25T22:47:08.635Z,21.77
2019-01-25T22:49:40.306Z,20.47
2019-01-25T22:52:19.077Z,19.00
2019-01-25T22:54:50.669Z,24.40
2019-01-25T22:57:22.207Z,19.77
2019-01-25T22:59:53.896Z,19.43
2019-01-25T23:02:25.503Z,19.83
2019-01-25T23:05:28.349Z,21.43
2019-01-25T23:07:59.853Z,21.67
2019-01-25T23:10:31.470Z,21.87
2019-01-25T23:13:10.739Z,17.43
2019-01-25T23:15:53.831Z,19.00
2019-01-25T23:18:25.275Z,20.43
2019-01-25T23:21:09.400Z,17.40
2019-01-25T23:23:41.302Z,20.17
2019-01-25T23:26:13.799Z,20.53
2019-01-25T23:28:45.325Z,16.33
2019-01-25T23:31:17.884Z,19.30
2019-01-25T23:33:49.466Z,17.53
2019-01-25T23:36:21.039Z,15.77
2019-01-25T23:38:52.416Z,18.67
2019-01-25T23:41:23.842Z,16.67
2019-01-25T23:43:55.371Z,17.67
2019-01-25T23:46:26.885Z,17.63
2019-01-25T23:48:58.360Z,19.00
2019-01-25T23:51:30.661Z,17.50
2019-01-25T23:54:01.926Z,16.17
2019-01-25T23:56:33.655Z,17.90
2019-01-25T23:59:12.737Z,19.77
